sensor_id;sensor_type;location;lat;lon;timestamp;temperature;humidity
44513;DHT22;30219;50.588;9.504;2023-03-01T00:01:50;-2.60;99.90
44513;DHT22;30219;50.588;9.504;2023-03-01T00:04:15;-2.60;99.90
44513;DHT22;30219;50.588;9.504;2023-03-01T00:06:44;-2.60;99.90
44513;DHT22;30219;50.588;9.504;2023-03-01T00:09:13;-2.60;99.90
44513;DHT22;30219;50.588;9.504;2023-03-01T00:11:39;-2.60;99.90
44513;DHT22;30219;50.588;9.504;2023-03-01T00:14:04;-2.60;99.90
44513;DHT22;30219;50.588;9.504;2023-03-01T00:16:31;-2.60;99.90
44513;DHT22;30219;50.588;9.504;2023-03-01T00:18:57;-2.90;99.90
44513;DHT22;30219;50.588;9.504;2023-03-01T00:21:23;-3.00;99.90
44513;DHT22;30219;50.588;9.504;2023-03-01T00:23:49;-2.90;99.90
44513;DHT22;30219;50.588;9.504;2023-03-01T00:26:15;-2.90;99.90
44513;DHT22;30219;50.588;9.504;2023-03-01T00:28:40;-2.90;99.90
44513;DHT22;30219;50.588;9.504;2023-03-01T00:31:08;-2.90;99.90
44513;DHT22;30219;50.588;9.504;2023-03-01T00:33:33;-2.90;99.90
44513;DHT22;30219;50.588;9.504;2023-03-01T00:35:59;-2.90;99.90
44513;DHT22;30219;50.588;9.504;2023-03-01T00:38:25;-2.90;99.90
44513;DHT22;30219;50.588;9.504;2023-03-01T00:40:50;-2.90;99.90
44513;DHT22;30219;50.588;9.504;2023-03-01T00:43:16;-3.00;99.90
44513;DHT22;30219;50.588;9.504;2023-03-01T00:45:41;-3.10;99.90
44513;DHT22;30219;50.588;9.504;2023-03-01T00:48:07;-3.10;99.90
44513;DHT22;30219;50.588;9.504;2023-03-01T00:50:32;-3.20;99.90
44513;DHT22;30219;50.588;9.504;2023-03-01T00:52:58;-3.10;99.90
44513;DHT22;30219;50.588;9.504;2023-03-01T00:55:24;-3.10;99.90
44513;DHT22;30219;50.588;9.504;2023-03-01T00:57:49;-3.10;99.90
44513;DHT22;30219;50.588;9.504;2023-03-01T01:00:15;-3.10;99.90
44513;DHT22;30219;50.588;9.504;2023-03-01T01:02:41;-3.20;99.90
44513;DHT22;30219;50.588;9.504;2023-03-01T01:05:06;-3.10;99.90
44513;DHT22;30219;50.588;9.504;2023-03-01T01:07:32;-3.10;99.90
44513;DHT22;30219;50.588;9.504;2023-03-01T01:09:58;-3.10;99.90
44513;DHT22;30219;50.588;9.504;2023-03-01T01:12:23;-3.20;99.90
44513;DHT22;30219;50.588;9.504;2023-03-01T01:14:49;-3.20;99.90
44513;DHT22;30219;50.588;9.504;2023-03-01T01:17:14;-3.30;99.90
44513;DHT22;30219;50.588;9.504;2023-03-01T01:19:39;-3.20;99.90
44513;DHT22;30219;50.588;9.504;2023-03-01T01:22:05;-3.30;99.90
44513;DHT22;30219;50.588;9.504;2023-03-01T01:24:31;-3.40;99.90
44513;DHT22;30219;50.588;9.504;2023-03-01T01:26:56;-3.40;99.90
44513;DHT22;30219;50.588;9.504;2023-03-01T01:29:22;-3.40;99.90
44513;DHT22;30219;50.588;9.504;2023-03-01T01:31:47;-3.40;99.90
44513;DHT22;30219;50.588;9.504;2023-03-01T01:34:14;-3.40;99.90
44513;DHT22;30219;50.588;9.504;2023-03-01T01:36:40;-3.40;99.90
44513;DHT22;30219;50.588;9.504;2023-03-01T01:39:06;-3.40;99.90
44513;DHT22;30219;50.588;9.504;2023-03-01T01:41:32;-3.40;99.90
44513;DHT22;30219;50.588;9.504;2023-03-01T01:46:36;-3.30;99.90
44513;DHT22;30219;50.588;9.504;2023-03-01T01:51:38;-3.30;99.90
44513;DHT22;30219;50.588;9.504;2023-03-01T01:54:09;-3.30;99.90
44513;DHT22;30219;50.588;9.504;2023-03-01T01:56:35;-3.30;99.90
44513;DHT22;30219;50.588;9.504;2023-03-01T01:59:02;-3.30;99.90
44513;DHT22;30219;50.588;9.504;2023-03-01T02:01:27;-3.30;99.90
44513;DHT22;30219;50.588;9.504;2023-03-01T02:03:53;-3.30;99.90
44513;DHT22;30219;50.588;9.504;2023-03-01T02:06:28;-3.30;99.90
44513;DHT22;30219;50.588;9.504;2023-03-01T02:08:59;-3.30;99.90
44513;DHT22;30219;50.588;9.504;2023-03-01T02:11:25;-3.30;99.90
44513;DHT22;30219;50.588;9.504;2023-03-01T02:13:52;-3.30;99.90
44513;DHT22;30219;50.588;9.504;2023-03-01T02:16:18;-3.30;99.90
44513;DHT22;30219;50.588;9.504;2023-03-01T02:18:44;-3.30;99.90
44513;DHT22;30219;50.588;9.504;2023-03-01T02:23:41;-3.40;99.90
44513;DHT22;30219;50.588;9.504;2023-03-01T02:28:42;-3.30;99.90
44513;DHT22;30219;50.588;9.504;2023-03-01T02:31:09;-3.20;99.90
44513;DHT22;30219;50.588;9.504;2023-03-01T02:33:53;-3.20;99.90
44513;DHT22;30219;50.588;9.504;2023-03-01T02:36:20;-3.20;99.90
44513;DHT22;30219;50.588;9.504;2023-03-01T02:38:48;-3.20;99.90
44513;DHT22;30219;50.588;9.504;2023-03-01T02:41:14;-3.20;99.90
44513;DHT22;30219;50.588;9.504;2023-03-01T02:43:40;-3.20;99.90
44513;DHT22;30219;50.588;9.504;2023-03-01T02:46:16;-3.20;99.90
44513;DHT22;30219;50.588;9.504;2023-03-01T02:48:45;-3.20;99.90
44513;DHT22;30219;50.588;9.504;2023-03-01T02:53:49;-3.10;99.90
44513;DHT22;30219;50.588;9.504;2023-03-01T02:56:18;-3.10;99.90
44513;DHT22;30219;50.588;9.504;2023-03-01T02:58:43;-3.10;99.90
44513;DHT22;30219;50.588;9.504;2023-03-01T03:01:16;-3.10;99.90
44513;DHT22;30219;50.588;9.504;2023-03-01T03:03:42;-3.10;99.90
44513;DHT22;30219;50.588;9.504;2023-03-01T03:06:08;-3.20;99.90
44513;DHT22;30219;50.588;9.504;2023-03-01T03:08:34;-3.20;99.90
44513;DHT22;30219;50.588;9.504;2023-03-01T03:11:00;-3.20;99.90
44513;DHT22;30219;50.588;9.504;2023-03-01T03:13:25;-3.20;99.90
44513;DHT22;30219;50.588;9.504;2023-03-01T03:15:56;-3.20;99.90
44513;DHT22;30219;50.588;9.504;2023-03-01T03:18:22;-3.20;99.90
44513;DHT22;30219;50.588;9.504;2023-03-01T03:20:51;-3.30;99.90
44513;DHT22;30219;50.588;9.504;2023-03-01T03:23:18;-3.30;99.90
44513;DHT22;30219;50.588;9.504;2023-03-01T03:25:43;-3.30;99.90
44513;DHT22;30219;50.588;9.504;2023-03-01T03:28:09;-3.30;99.90
44513;DHT22;30219;50.588;9.504;2023-03-01T03:30:35;-3.30;99.90
44513;DHT22;30219;50.588;9.504;2023-03-01T03:33:01;-3.40;99.90
44513;DHT22;30219;50.588;9.504;2023-03-01T03:35:28;-3.40;99.90
44513;DHT22;30219;50.588;9.504;2023-03-01T03:37:55;-3.50;99.90
44513;DHT22;30219;50.588;9.504;2023-03-01T03:40:28;-3.40;99.90
44513;DHT22;30219;50.588;9.504;2023-03-01T03:42:54;-3.40;99.90
44513;DHT22;30219;50.588;9.504;2023-03-01T03:45:20;-3.40;99.90
44513;DHT22;30219;50.588;9.504;2023-03-01T03:47:45;-3.40;99.90
44513;DHT22;30219;50.588;9.504;2023-03-01T03:50:12;-3.30;99.90
44513;DHT22;30219;50.588;9.504;2023-03-01T03:52:37;-3.20;99.90
44513;DHT22;30219;50.588;9.504;2023-03-01T03:55:03;-3.20;99.90
44513;DHT22;30219;50.588;9.504;2023-03-01T03:57:29;-3.30;99.90
44513;DHT22;30219;50.588;9.504;2023-03-01T03:59:54;-3.30;99.90
44513;DHT22;30219;50.588;9.504;2023-03-01T04:02:19;-3.30;99.90
44513;DHT22;30219;50.588;9.504;2023-03-01T04:04:47;-3.50;99.90
44513;DHT22;30219;50.588;9.504;2023-03-01T04:07:15;-3.40;99.90
44513;DHT22;30219;50.588;9.504;2023-03-01T04:09:40;-3.40;99.90
44513;DHT22;30219;50.588;9.504;2023-03-01T04:12:07;-3.40;99.90
44513;DHT22;30219;50.588;9.504;2023-03-01T04:14:33;-3.30;99.90
44513;DHT22;30219;50.588;9.504;2023-03-01T04:16:58;-3.20;99.90
44513;DHT22;30219;50.588;9.504;2023-03-01T04:19:24;-3.20;99.90
44513;DHT22;30219;50.588;9.504;2023-03-01T04:21:49;-3.20;99.90
44513;DHT22;30219;50.588;9.504;2023-03-01T04:24:15;-3.20;99.90
44513;DHT22;30219;50.588;9.504;2023-03-01T04:26:41;-3.20;99.90
44513;DHT22;30219;50.588;9.504;2023-03-01T04:29:07;-3.20;99.90
44513;DHT22;30219;50.588;9.504;2023-03-01T04:31:32;-3.20;99.90
44513;DHT22;30219;50.588;9.504;2023-03-01T04:33:59;-3.20;99.90
44513;DHT22;30219;50.588;9.504;2023-03-01T04:36:26;-3.30;99.90
44513;DHT22;30219;50.588;9.504;2023-03-01T04:38:52;-3.30;99.90
44513;DHT22;30219;50.588;9.504;2023-03-01T04:41:19;-3.30;99.90
44513;DHT22;30219;50.588;9.504;2023-03-01T04:43:45;-3.30;99.90
44513;DHT22;30219;50.588;9.504;2023-03-01T04:46:11;-3.30;99.90
44513;DHT22;30219;50.588;9.504;2023-03-01T04:48:38;-3.30;99.90
44513;DHT22;30219;50.588;9.504;2023-03-01T04:51:03;-3.30;99.90
44513;DHT22;30219;50.588;9.504;2023-03-01T04:53:29;-3.30;99.90
44513;DHT22;30219;50.588;9.504;2023-03-01T04:55:55;-3.30;99.90
44513;DHT22;30219;50.588;9.504;2023-03-01T04:58:25;-3.30;99.90
44513;DHT22;30219;50.588;9.504;2023-03-01T05:00:51;-3.30;99.90
44513;DHT22;30219;50.588;9.504;2023-03-01T05:03:16;-3.30;99.90
44513;DHT22;30219;50.588;9.504;2023-03-01T05:05:44;-3.30;99.90
44513;DHT22;30219;50.588;9.504;2023-03-01T05:08:10;-3.20;99.90
44513;DHT22;30219;50.588;9.504;2023-03-01T05:10:43;-3.20;99.90
44513;DHT22;30219;50.588;9.504;2023-03-01T05:13:08;-3.20;99.90
44513;DHT22;30219;50.588;9.504;2023-03-01T05:15:34;-3.20;99.90
44513;DHT22;30219;50.588;9.504;2023-03-01T05:18:01;-3.20;99.90
44513;DHT22;30219;50.588;9.504;2023-03-01T05:20:27;-3.20;99.90
44513;DHT22;30219;50.588;9.504;2023-03-01T05:22:54;-3.30;99.90
44513;DHT22;30219;50.588;9.504;2023-03-01T05:25:20;-3.20;99.90
44513;DHT22;30219;50.588;9.504;2023-03-01T05:27:46;-3.30;99.90
44513;DHT22;30219;50.588;9.504;2023-03-01T05:30:12;-3.30;99.90
44513;DHT22;30219;50.588;9.504;2023-03-01T05:32:42;-3.30;99.90
44513;DHT22;30219;50.588;9.504;2023-03-01T05:35:15;-3.30;99.90
44513;DHT22;30219;50.588;9.504;2023-03-01T05:37:41;-3.20;99.90
44513;DHT22;30219;50.588;9.504;2023-03-01T05:40:08;-3.20;99.90
44513;DHT22;30219;50.588;9.504;2023-03-01T05:42:41;-3.10;99.90
44513;DHT22;30219;50.588;9.504;2023-03-01T05:45:07;-3.20;99.90
44513;DHT22;30219;50.588;9.504;2023-03-01T05:47:34;-3.20;99.90
44513;DHT22;30219;50.588;9.504;2023-03-01T05:50:00;-3.20;99.90
44513;DHT22;30219;50.588;9.504;2023-03-01T05:52:26;-3.20;99.90
44513;DHT22;30219;50.588;9.504;2023-03-01T05:54:51;-3.20;99.90
44513;DHT22;30219;50.588;9.504;2023-03-01T05:57:17;-3.20;99.90
44513;DHT22;30219;50.588;9.504;2023-03-01T05:59:42;-3.20;99.90
44513;DHT22;30219;50.588;9.504;2023-03-01T06:02:08;-3.20;99.90
44513;DHT22;30219;50.588;9.504;2023-03-01T06:04:33;-3.30;99.90
44513;DHT22;30219;50.588;9.504;2023-03-01T06:06:59;-3.30;99.90
44513;DHT22;30219;50.588;9.504;2023-03-01T06:09:24;-3.30;99.90
44513;DHT22;30219;50.588;9.504;2023-03-01T06:11:51;-3.40;99.90
44513;DHT22;30219;50.588;9.504;2023-03-01T06:14:16;-3.50;99.90
44513;DHT22;30219;50.588;9.504;2023-03-01T06:16:42;-3.40;99.90
44513;DHT22;30219;50.588;9.504;2023-03-01T06:19:07;-3.40;99.90
44513;DHT22;30219;50.588;9.504;2023-03-01T06:21:33;-3.30;99.90
44513;DHT22;30219;50.588;9.504;2023-03-01T06:23:58;-3.30;99.90
44513;DHT22;30219;50.588;9.504;2023-03-01T06:26:24;-3.30;99.90
44513;DHT22;30219;50.588;9.504;2023-03-01T06:28:49;-3.20;99.90
44513;DHT22;30219;50.588;9.504;2023-03-01T06:31:15;-3.20;99.90
44513;DHT22;30219;50.588;9.504;2023-03-01T06:33:40;-3.20;99.90
44513;DHT22;30219;50.588;9.504;2023-03-01T06:36:06;-3.10;99.90
44513;DHT22;30219;50.588;9.504;2023-03-01T06:38:32;-3.20;99.90
44513;DHT22;30219;50.588;9.504;2023-03-01T06:40:57;-3.10;99.90
44513;DHT22;30219;50.588;9.504;2023-03-01T06:43:23;-3.10;99.90
44513;DHT22;30219;50.588;9.504;2023-03-01T06:45:48;-3.00;99.90
44513;DHT22;30219;50.588;9.504;2023-03-01T06:48:14;-2.90;99.90
44513;DHT22;30219;50.588;9.504;2023-03-01T06:50:40;-2.70;99.90
44513;DHT22;30219;50.588;9.504;2023-03-01T06:53:05;-2.40;99.90
44513;DHT22;30219;50.588;9.504;2023-03-01T06:55:31;-2.10;99.90
44513;DHT22;30219;50.588;9.504;2023-03-01T06:57:57;-1.90;99.90
44513;DHT22;30219;50.588;9.504;2023-03-01T07:00:24;-1.60;99.90
44513;DHT22;30219;50.588;9.504;2023-03-01T07:02:50;-1.10;99.90
44513;DHT22;30219;50.588;9.504;2023-03-01T07:05:15;-0.50;99.90
44513;DHT22;30219;50.588;9.504;2023-03-01T07:07:41;0.00;99.90
44513;DHT22;30219;50.588;9.504;2023-03-01T07:10:06;0.50;99.90
44513;DHT22;30219;50.588;9.504;2023-03-01T07:12:32;1.00;99.90
44513;DHT22;30219;50.588;9.504;2023-03-01T07:14:58;1.30;99.90
44513;DHT22;30219;50.588;9.504;2023-03-01T07:17:23;1.70;99.90
44513;DHT22;30219;50.588;9.504;2023-03-01T07:19:49;2.00;99.90
44513;DHT22;30219;50.588;9.504;2023-03-01T07:22:14;2.30;99.90
44513;DHT22;30219;50.588;9.504;2023-03-01T07:24:40;2.60;99.90
44513;DHT22;30219;50.588;9.504;2023-03-01T07:27:06;2.90;99.90
44513;DHT22;30219;50.588;9.504;2023-03-01T07:29:31;3.30;99.90
44513;DHT22;30219;50.588;9.504;2023-03-01T07:31:57;3.80;99.90
44513;DHT22;30219;50.588;9.504;2023-03-01T07:34:23;4.20;99.90
44513;DHT22;30219;50.588;9.504;2023-03-01T07:36:49;4.50;99.90
44513;DHT22;30219;50.588;9.504;2023-03-01T07:39:14;4.80;99.90
44513;DHT22;30219;50.588;9.504;2023-03-01T07:41:40;5.00;99.90
44513;DHT22;30219;50.588;9.504;2023-03-01T07:44:05;5.30;99.90
44513;DHT22;30219;50.588;9.504;2023-03-01T07:46:31;5.50;99.90
44513;DHT22;30219;50.588;9.504;2023-03-01T07:48:57;5.60;99.90
44513;DHT22;30219;50.588;9.504;2023-03-01T07:51:23;5.80;99.90
44513;DHT22;30219;50.588;9.504;2023-03-01T07:53:49;6.20;99.70
44513;DHT22;30219;50.588;9.504;2023-03-01T07:56:15;6.40;98.80
44513;DHT22;30219;50.588;9.504;2023-03-01T07:58:43;6.60;98.80
44513;DHT22;30219;50.588;9.504;2023-03-01T08:01:10;6.80;98.20
44513;DHT22;30219;50.588;9.504;2023-03-01T08:03:36;7.10;96.60
44513;DHT22;30219;50.588;9.504;2023-03-01T08:06:02;7.30;96.80
44513;DHT22;30219;50.588;9.504;2023-03-01T08:08:28;7.40;96.50
44513;DHT22;30219;50.588;9.504;2023-03-01T08:10:57;7.70;95.00
44513;DHT22;30219;50.588;9.504;2023-03-01T08:13:23;7.80;95.40
44513;DHT22;30219;50.588;9.504;2023-03-01T08:15:49;8.00;95.10
44513;DHT22;30219;50.588;9.504;2023-03-01T08:18:15;8.20;94.30
44513;DHT22;30219;50.588;9.504;2023-03-01T08:20:40;8.30;94.40
44513;DHT22;30219;50.588;9.504;2023-03-01T08:23:06;8.50;93.10
44513;DHT22;30219;50.588;9.504;2023-03-01T08:25:31;8.80;93.30
44513;DHT22;30219;50.588;9.504;2023-03-01T08:27:57;9.20;92.20
44513;DHT22;30219;50.588;9.504;2023-03-01T08:30:22;9.30;92.10
44513;DHT22;30219;50.588;9.504;2023-03-01T08:32:49;9.40;92.10
44513;DHT22;30219;50.588;9.504;2023-03-01T08:35:14;9.40;91.90
44513;DHT22;30219;50.588;9.504;2023-03-01T08:37:40;9.50;91.60
44513;DHT22;30219;50.588;9.504;2023-03-01T08:40:06;9.60;90.90
44513;DHT22;30219;50.588;9.504;2023-03-01T08:42:32;9.50;91.50
44513;DHT22;30219;50.588;9.504;2023-03-01T08:44:58;9.70;91.00
44513;DHT22;30219;50.588;9.504;2023-03-01T08:47:23;10.00;90.90
44513;DHT22;30219;50.588;9.504;2023-03-01T08:49:49;10.30;88.50
44513;DHT22;30219;50.588;9.504;2023-03-01T08:52:15;10.10;90.00
44513;DHT22;30219;50.588;9.504;2023-03-01T08:54:40;10.30;90.00
44513;DHT22;30219;50.588;9.504;2023-03-01T08:57:06;10.70;88.20
44513;DHT22;30219;50.588;9.504;2023-03-01T08:59:31;10.70;86.30
44513;DHT22;30219;50.588;9.504;2023-03-01T09:02:02;10.20;87.30
44513;DHT22;30219;50.588;9.504;2023-03-01T09:04:28;9.60;89.10
44513;DHT22;30219;50.588;9.504;2023-03-01T09:06:53;9.90;87.00
44513;DHT22;30219;50.588;9.504;2023-03-01T09:09:19;10.20;86.90
44513;DHT22;30219;50.588;9.504;2023-03-01T09:11:45;10.20;86.70
44513;DHT22;30219;50.588;9.504;2023-03-01T09:14:15;10.00;86.90
44513;DHT22;30219;50.588;9.504;2023-03-01T09:16:40;9.80;86.40
44513;DHT22;30219;50.588;9.504;2023-03-01T09:19:06;9.90;85.80
44513;DHT22;30219;50.588;9.504;2023-03-01T09:21:31;10.20;86.30
44513;DHT22;30219;50.588;9.504;2023-03-01T09:23:57;9.80;85.10
44513;DHT22;30219;50.588;9.504;2023-03-01T09:26:23;9.80;86.80
44513;DHT22;30219;50.588;9.504;2023-03-01T09:28:50;10.00;86.70
44513;DHT22;30219;50.588;9.504;2023-03-01T09:31:17;10.10;87.30
44513;DHT22;30219;50.588;9.504;2023-03-01T09:33:45;10.20;85.80
44513;DHT22;30219;50.588;9.504;2023-03-01T09:36:15;10.30;85.10
44513;DHT22;30219;50.588;9.504;2023-03-01T09:38:40;10.00;84.40
44513;DHT22;30219;50.588;9.504;2023-03-01T09:41:10;9.70;85.40
44513;DHT22;30219;50.588;9.504;2023-03-01T09:43:43;9.50;87.10
44513;DHT22;30219;50.588;9.504;2023-03-01T09:46:11;9.60;85.30
44513;DHT22;30219;50.588;9.504;2023-03-01T09:48:59;9.40;86.80
44513;DHT22;30219;50.588;9.504;2023-03-01T09:51:28;9.40;86.20
44513;DHT22;30219;50.588;9.504;2023-03-01T09:53:55;9.50;85.90
44513;DHT22;30219;50.588;9.504;2023-03-01T09:56:41;9.10;86.30
44513;DHT22;30219;50.588;9.504;2023-03-01T10:01:52;9.30;86.50
44513;DHT22;30219;50.588;9.504;2023-03-01T10:04:28;9.10;86.60
44513;DHT22;30219;50.588;9.504;2023-03-01T10:07:02;9.00;87.00
44513;DHT22;30219;50.588;9.504;2023-03-01T10:09:30;8.90;86.20
44513;DHT22;30219;50.588;9.504;2023-03-01T10:11:58;8.70;86.80
44513;DHT22;30219;50.588;9.504;2023-03-01T10:14:36;8.60;86.10
44513;DHT22;30219;50.588;9.504;2023-03-01T10:17:17;8.60;87.50
44513;DHT22;30219;50.588;9.504;2023-03-01T10:19:46;8.40;88.20
44513;DHT22;30219;50.588;9.504;2023-03-01T10:24:40;8.70;87.70
44513;DHT22;30219;50.588;9.504;2023-03-01T10:27:07;9.00;88.30
44513;DHT22;30219;50.588;9.504;2023-03-01T10:29:36;9.40;87.30
44513;DHT22;30219;50.588;9.504;2023-03-01T10:32:03;8.90;88.10
44513;DHT22;30219;50.588;9.504;2023-03-01T10:34:30;9.30;88.40
44513;DHT22;30219;50.588;9.504;2023-03-01T10:37:17;9.50;87.10
44513;DHT22;30219;50.588;9.504;2023-03-01T10:39:56;9.50;85.80
44513;DHT22;30219;50.588;9.504;2023-03-01T10:42:27;9.50;86.90
44513;DHT22;30219;50.588;9.504;2023-03-01T10:44:53;10.10;85.30
44513;DHT22;30219;50.588;9.504;2023-03-01T10:47:23;10.30;84.30
44513;DHT22;30219;50.588;9.504;2023-03-01T10:49:51;10.60;84.10
44513;DHT22;30219;50.588;9.504;2023-03-01T10:52:20;10.90;85.50
44513;DHT22;30219;50.588;9.504;2023-03-01T10:54:54;11.00;81.50
44513;DHT22;30219;50.588;9.504;2023-03-01T10:57:33;10.40;82.90
44513;DHT22;30219;50.588;9.504;2023-03-01T11:00:23;10.40;84.60
44513;DHT22;30219;50.588;9.504;2023-03-01T11:02:49;10.40;83.40
44513;DHT22;30219;50.588;9.504;2023-03-01T11:05:21;10.30;83.90
44513;DHT22;30219;50.588;9.504;2023-03-01T11:07:50;10.40;83.60
44513;DHT22;30219;50.588;9.504;2023-03-01T11:10:17;9.90;84.50
44513;DHT22;30219;50.588;9.504;2023-03-01T11:12:43;9.40;84.60
44513;DHT22;30219;50.588;9.504;2023-03-01T11:15:15;9.90;84.30
44513;DHT22;30219;50.588;9.504;2023-03-01T11:17:45;9.30;84.50
44513;DHT22;30219;50.588;9.504;2023-03-01T11:20:32;9.10;86.00
44513;DHT22;30219;50.588;9.504;2023-03-01T11:22:57;8.90;86.60
44513;DHT22;30219;50.588;9.504;2023-03-01T11:25:24;9.20;87.10
44513;DHT22;30219;50.588;9.504;2023-03-01T11:27:50;9.20;86.70
44513;DHT22;30219;50.588;9.504;2023-03-01T11:30:19;9.10;85.40
44513;DHT22;30219;50.588;9.504;2023-03-01T11:32:47;9.10;85.30
44513;DHT22;30219;50.588;9.504;2023-03-01T11:40:24;9.40;87.40
44513;DHT22;30219;50.588;9.504;2023-03-01T11:42:56;9.60;85.60
44513;DHT22;30219;50.588;9.504;2023-03-01T11:45:24;9.40;86.20
44513;DHT22;30219;50.588;9.504;2023-03-01T11:50:32;9.30;86.60
44513;DHT22;30219;50.588;9.504;2023-03-01T11:53:05;9.30;86.90
44513;DHT22;30219;50.588;9.504;2023-03-01T12:01:10;8.80;86.90
44513;DHT22;30219;50.588;9.504;2023-03-01T12:04:04;8.60;86.20
44513;DHT22;30219;50.588;9.504;2023-03-01T12:09:24;8.40;87.80
44513;DHT22;30219;50.588;9.504;2023-03-01T12:12:11;8.50;87.70
44513;DHT22;30219;50.588;9.504;2023-03-01T12:14:50;8.60;86.60
44513;DHT22;30219;50.588;9.504;2023-03-01T12:24:54;8.60;86.10
44513;DHT22;30219;50.588;9.504;2023-03-01T12:30:34;8.80;86.40
44513;DHT22;30219;50.588;9.504;2023-03-01T12:38:19;8.60;85.30
44513;DHT22;30219;50.588;9.504;2023-03-01T12:41:10;8.60;85.10
44513;DHT22;30219;50.588;9.504;2023-03-01T12:48:41;8.80;85.60
44513;DHT22;30219;50.588;9.504;2023-03-01T12:51:09;8.90;85.00
44513;DHT22;30219;50.588;9.504;2023-03-01T12:53:41;8.70;84.30
44513;DHT22;30219;50.588;9.504;2023-03-01T12:56:09;8.70;85.80
44513;DHT22;30219;50.588;9.504;2023-03-01T12:58:51;9.00;84.40
44513;DHT22;30219;50.588;9.504;2023-03-01T13:01:26;8.90;85.10
44513;DHT22;30219;50.588;9.504;2023-03-01T13:09:12;9.10;84.70
44513;DHT22;30219;50.588;9.504;2023-03-01T13:11:43;9.10;83.90
44513;DHT22;30219;50.588;9.504;2023-03-01T13:16:47;9.20;83.90
44513;DHT22;30219;50.588;9.504;2023-03-01T13:21:43;9.20;83.40
44513;DHT22;30219;50.588;9.504;2023-03-01T13:24:29;8.80;84.30
44513;DHT22;30219;50.588;9.504;2023-03-01T13:29:51;8.80;84.80
44513;DHT22;30219;50.588;9.504;2023-03-01T13:32:27;8.60;86.30
44513;DHT22;30219;50.588;9.504;2023-03-01T13:35:00;8.60;85.30
44513;DHT22;30219;50.588;9.504;2023-03-01T13:37:26;8.40;85.80
44513;DHT22;30219;50.588;9.504;2023-03-01T13:39:55;8.50;86.30
44513;DHT22;30219;50.588;9.504;2023-03-01T13:42:36;8.40;86.60
44513;DHT22;30219;50.588;9.504;2023-03-01T13:45:04;8.20;87.60
44513;DHT22;30219;50.588;9.504;2023-03-01T13:47:29;8.30;87.00
44513;DHT22;30219;50.588;9.504;2023-03-01T13:49:56;8.10;87.10
44513;DHT22;30219;50.588;9.504;2023-03-01T13:57:38;8.30;85.70
44513;DHT22;30219;50.588;9.504;2023-03-01T14:00:05;8.20;86.40
44513;DHT22;30219;50.588;9.504;2023-03-01T14:02:30;8.00;88.00
44513;DHT22;30219;50.588;9.504;2023-03-01T14:04:57;7.80;87.50
44513;DHT22;30219;50.588;9.504;2023-03-01T14:07:23;7.80;88.40
44513;DHT22;30219;50.588;9.504;2023-03-01T14:10:01;7.80;86.90
44513;DHT22;30219;50.588;9.504;2023-03-01T14:17:30;7.70;86.40
44513;DHT22;30219;50.588;9.504;2023-03-01T14:20:08;7.40;86.90
44513;DHT22;30219;50.588;9.504;2023-03-01T14:22:35;7.60;87.10
44513;DHT22;30219;50.588;9.504;2023-03-01T14:25:17;7.60;86.40
44513;DHT22;30219;50.588;9.504;2023-03-01T14:27:44;7.50;87.20
44513;DHT22;30219;50.588;9.504;2023-03-01T14:30:19;7.50;86.90
44513;DHT22;30219;50.588;9.504;2023-03-01T14:32:53;7.50;88.10
44513;DHT22;30219;50.588;9.504;2023-03-01T14:35:20;7.60;87.80
44513;DHT22;30219;50.588;9.504;2023-03-01T14:37:46;7.60;87.60
44513;DHT22;30219;50.588;9.504;2023-03-01T14:42:48;7.40;87.30
44513;DHT22;30219;50.588;9.504;2023-03-01T14:45:13;7.20;88.30
44513;DHT22;30219;50.588;9.504;2023-03-01T14:47:39;7.10;87.70
44513;DHT22;30219;50.588;9.504;2023-03-01T14:50:13;7.20;87.80
44513;DHT22;30219;50.588;9.504;2023-03-01T14:52:41;7.30;89.00
44513;DHT22;30219;50.588;9.504;2023-03-01T14:55:20;7.40;88.90
44513;DHT22;30219;50.588;9.504;2023-03-01T14:57:48;7.30;87.10
44513;DHT22;30219;50.588;9.504;2023-03-01T15:00:23;7.30;87.00
44513;DHT22;30219;50.588;9.504;2023-03-01T15:02:50;7.10;87.00
44513;DHT22;30219;50.588;9.504;2023-03-01T15:05:25;6.90;86.60
44513;DHT22;30219;50.588;9.504;2023-03-01T15:07:50;7.00;86.40
44513;DHT22;30219;50.588;9.504;2023-03-01T15:10:20;6.90;86.60
44513;DHT22;30219;50.588;9.504;2023-03-01T15:12:47;6.90;86.10
44513;DHT22;30219;50.588;9.504;2023-03-01T15:15:19;7.10;86.60
44513;DHT22;30219;50.588;9.504;2023-03-01T15:17:48;7.20;85.60
44513;DHT22;30219;50.588;9.504;2023-03-01T15:20:16;7.20;85.70
44513;DHT22;30219;50.588;9.504;2023-03-01T15:22:45;7.30;86.40
44513;DHT22;30219;50.588;9.504;2023-03-01T15:25:15;7.30;85.40
44513;DHT22;30219;50.588;9.504;2023-03-01T15:27:44;7.20;85.70
44513;DHT22;30219;50.588;9.504;2023-03-01T15:30:17;7.20;86.50
44513;DHT22;30219;50.588;9.504;2023-03-01T15:32:43;7.30;86.60
44513;DHT22;30219;50.588;9.504;2023-03-01T15:37:54;7.10;86.80
44513;DHT22;30219;50.588;9.504;2023-03-01T15:42:49;7.00;85.90
44513;DHT22;30219;50.588;9.504;2023-03-01T15:47:46;6.90;86.60
44513;DHT22;30219;50.588;9.504;2023-03-01T15:52:45;6.70;87.20
44513;DHT22;30219;50.588;9.504;2023-03-01T15:57:42;6.60;88.20
44513;DHT22;30219;50.588;9.504;2023-03-01T16:00:11;6.50;87.50
44513;DHT22;30219;50.588;9.504;2023-03-01T16:02:38;6.50;88.30
44513;DHT22;30219;50.588;9.504;2023-03-01T16:05:04;6.60;88.30
44513;DHT22;30219;50.588;9.504;2023-03-01T16:07:30;6.50;87.90
44513;DHT22;30219;50.588;9.504;2023-03-01T16:09:56;6.40;87.40
44513;DHT22;30219;50.588;9.504;2023-03-01T16:12:22;6.40;87.30
44513;DHT22;30219;50.588;9.504;2023-03-01T16:14:47;6.30;87.60
44513;DHT22;30219;50.588;9.504;2023-03-01T16:17:13;6.20;87.60
44513;DHT22;30219;50.588;9.504;2023-03-01T16:19:39;6.20;87.20
44513;DHT22;30219;50.588;9.504;2023-03-01T16:22:06;6.20;87.40
44513;DHT22;30219;50.588;9.504;2023-03-01T16:24:31;6.20;87.50
44513;DHT22;30219;50.588;9.504;2023-03-01T16:26:57;6.10;86.70
44513;DHT22;30219;50.588;9.504;2023-03-01T16:29:22;5.90;88.20
44513;DHT22;30219;50.588;9.504;2023-03-01T16:31:48;5.90;88.40
44513;DHT22;30219;50.588;9.504;2023-03-01T16:34:13;5.80;88.50
44513;DHT22;30219;50.588;9.504;2023-03-01T16:36:46;5.70;88.70
44513;DHT22;30219;50.588;9.504;2023-03-01T16:39:11;5.70;89.00
44513;DHT22;30219;50.588;9.504;2023-03-01T16:41:37;5.60;89.70
44513;DHT22;30219;50.588;9.504;2023-03-01T16:44:02;5.50;90.10
44513;DHT22;30219;50.588;9.504;2023-03-01T16:46:28;5.40;90.20
44513;DHT22;30219;50.588;9.504;2023-03-01T16:48:54;5.30;90.60
44513;DHT22;30219;50.588;9.504;2023-03-01T16:51:20;5.20;90.60
44513;DHT22;30219;50.588;9.504;2023-03-01T16:53:46;5.10;90.90
44513;DHT22;30219;50.588;9.504;2023-03-01T16:56:12;5.00;91.10
44513;DHT22;30219;50.588;9.504;2023-03-01T16:58:38;4.90;91.40
44513;DHT22;30219;50.588;9.504;2023-03-01T17:01:06;4.70;91.80
44513;DHT22;30219;50.588;9.504;2023-03-01T17:03:32;4.70;92.10
44513;DHT22;30219;50.588;9.504;2023-03-01T17:06:00;4.60;92.20
44513;DHT22;30219;50.588;9.504;2023-03-01T17:08:26;4.50;92.60
44513;DHT22;30219;50.588;9.504;2023-03-01T17:10:52;4.30;92.90
44513;DHT22;30219;50.588;9.504;2023-03-01T17:13:17;4.30;93.00
44513;DHT22;30219;50.588;9.504;2023-03-01T17:15:43;4.20;93.20